sensor_id;sensor_type;location;lat;lon;timestamp;P1;durP1;ratioP1;P2;durP2;ratioP2
13067;SDS011;6600;51.362;6.686;2023-03-24T00:00:17;0.40;;;0.40;;
13067;SDS011;6600;51.362;6.686;2023-03-24T00:02:44;2.30;;;0.50;;
13067;SDS011;6600;51.362;6.686;2023-03-24T00:05:11;0.50;;;0.50;;
13067;SDS011;6600;51.362;6.686;2023-03-24T00:07:38;0.40;;;0.40;;
13067;SDS011;6600;51.362;6.686;2023-03-24T00:10:05;0.67;;;0.60;;
13067;SDS011;6600;51.362;6.686;2023-03-24T00:12:33;0.67;;;0.60;;
13067;SDS011;6600;51.362;6.686;2023-03-24T00:15:02;2.80;;;0.60;;
13067;SDS011;6600;51.362;6.686;2023-03-24T00:17:29;0.40;;;0.40;;
13067;SDS011;6600;51.362;6.686;2023-03-24T00:19:54;0.80;;;0.80;;
13067;SDS011;6600;51.362;6.686;2023-03-24T00:22:20;0.40;;;0.40;;
13067;SDS011;6600;51.362;6.686;2023-03-24T00:24:45;2.67;;;0.80;;
13067;SDS011;6600;51.362;6.686;2023-03-24T00:27:11;0.83;;;0.60;;
13067;SDS011;6600;51.362;6.686;2023-03-24T00:29:38;1.17;;;0.60;;
13067;SDS011;6600;51.362;6.686;2023-03-24T00:32:04;2.20;;;0.40;;
13067;SDS011;6600;51.362;6.686;2023-03-24T00:34:30;0.50;;;0.50;;
13067;SDS011;6600;51.362;6.686;2023-03-24T00:36:55;2.67;;;1.00;;
13067;SDS011;6600;51.362;6.686;2023-03-24T00:39:21;0.80;;;0.73;;
13067;SDS011;6600;51.362;6.686;2023-03-24T00:41:46;3.67;;;1.00;;
13067;SDS011;6600;51.362;6.686;2023-03-24T00:44:13;1.07;;;0.90;;
13067;SDS011;6600;51.362;6.686;2023-03-24T00:46:44;1.00;;;1.00;;
13067;SDS011;6600;51.362;6.686;2023-03-24T00:49:10;0.73;;;0.73;;
13067;SDS011;6600;51.362;6.686;2023-03-24T00:51:37;0.73;;;0.73;;
13067;SDS011;6600;51.362;6.686;2023-03-24T00:54:05;0.63;;;0.63;;
13067;SDS011;6600;51.362;6.686;2023-03-24T00:56:33;1.30;;;0.90;;
13067;SDS011;6600;51.362;6.686;2023-03-24T00:58:59;1.20;;;1.10;;
13067;SDS011;6600;51.362;6.686;2023-03-24T01:01:26;0.83;;;0.80;;
13067;SDS011;6600;51.362;6.686;2023-03-24T01:03:54;0.77;;;0.77;;
13067;SDS011;6600;51.362;6.686;2023-03-24T01:06:20;1.40;;;0.90;;
13067;SDS011;6600;51.362;6.686;2023-03-24T01:08:48;1.57;;;1.00;;
13067;SDS011;6600;51.362;6.686;2023-03-24T01:11:17;0.97;;;0.80;;
13067;SDS011;6600;51.362;6.686;2023-03-24T01:13:47;0.90;;;0.90;;
13067;SDS011;6600;51.362;6.686;2023-03-24T01:16:13;1.03;;;0.63;;
13067;SDS011;6600;51.362;6.686;2023-03-24T01:18:40;0.60;;;0.60;;
13067;SDS011;6600;51.362;6.686;2023-03-24T01:21:06;1.63;;;1.30;;
13067;SDS011;6600;51.362;6.686;2023-03-24T01:23:33;0.87;;;0.70;;
13067;SDS011;6600;51.362;6.686;2023-03-24T01:26:00;1.10;;;1.00;;
13067;SDS011;6600;51.362;6.686;2023-03-24T01:28:29;1.40;;;1.07;;
13067;SDS011;6600;51.362;6.686;2023-03-24T01:30:55;1.70;;;1.60;;
13067;SDS011;6600;51.362;6.686;2023-03-24T01:33:20;1.10;;;1.00;;
13067;SDS011;6600;51.362;6.686;2023-03-24T01:35:46;1.57;;;1.10;;
13067;SDS011;6600;51.362;6.686;2023-03-24T01:38:13;0.83;;;0.63;;
13067;SDS011;6600;51.362;6.686;2023-03-24T01:40:40;1.60;;;0.67;;
13067;SDS011;6600;51.362;6.686;2023-03-24T01:43:14;1.07;;;0.80;;
13067;SDS011;6600;51.362;6.686;2023-03-24T01:45:59;1.90;;;0.90;;
13067;SDS011;6600;51.362;6.686;2023-03-24T01:51:19;1.43;;;1.03;;
13067;SDS011;6600;51.362;6.686;2023-03-24T01:53:53;0.67;;;0.67;;
13067;SDS011;6600;51.362;6.686;2023-03-24T01:56:22;0.93;;;0.80;;
13067;SDS011;6600;51.362;6.686;2023-03-24T01:58:53;0.73;;;0.73;;
13067;SDS011;6600;51.362;6.686;2023-03-24T02:01:22;2.80;;;1.00;;
13067;SDS011;6600;51.362;6.686;2023-03-24T02:03:50;0.83;;;0.80;;
13067;SDS011;6600;51.362;6.686;2023-03-24T02:06:17;0.60;;;0.60;;
13067;SDS011;6600;51.362;6.686;2023-03-24T02:08:47;1.20;;;1.10;;
13067;SDS011;6600;51.362;6.686;2023-03-24T02:11:16;0.67;;;0.60;;
13067;SDS011;6600;51.362;6.686;2023-03-24T02:13:43;1.17;;;0.80;;
13067;SDS011;6600;51.362;6.686;2023-03-24T02:18:40;0.90;;;0.80;;
13067;SDS011;6600;51.362;6.686;2023-03-24T02:27:01;0.67;;;0.67;;
13067;SDS011;6600;51.362;6.686;2023-03-24T02:51:38;1.13;;;1.00;;
13067;SDS011;6600;51.362;6.686;2023-03-24T02:54:24;2.73;;;1.17;;
13067;SDS011;6600;51.362;6.686;2023-03-24T02:57:12;1.10;;;1.10;;
13067;SDS011;6600;51.362;6.686;2023-03-24T03:00:12;1.20;;;1.10;;
13067;SDS011;6600;51.362;6.686;2023-03-24T03:02:55;1.43;;;1.33;;
13067;SDS011;6600;51.362;6.686;2023-03-24T03:05:35;2.57;;;2.03;;
13067;SDS011;6600;51.362;6.686;2023-03-24T03:08:06;2.37;;;2.13;;
13067;SDS011;6600;51.362;6.686;2023-03-24T03:10:36;2.27;;;2.07;;
13067;SDS011;6600;51.362;6.686;2023-03-24T03:13:14;1.30;;;1.20;;
13067;SDS011;6600;51.362;6.686;2023-03-24T03:15:45;4.13;;;1.53;;
13067;SDS011;6600;51.362;6.686;2023-03-24T03:18:16;0.80;;;0.80;;
13067;SDS011;6600;51.362;6.686;2023-03-24T03:20:47;1.37;;;1.10;;
13067;SDS011;6600;51.362;6.686;2023-03-24T03:23:38;0.50;;;0.50;;
13067;SDS011;6600;51.362;6.686;2023-03-24T03:26:07;0.80;;;0.80;;
13067;SDS011;6600;51.362;6.686;2023-03-24T03:28:39;0.87;;;0.87;;
13067;SDS011;6600;51.362;6.686;2023-03-24T03:31:09;1.13;;;0.93;;
13067;SDS011;6600;51.362;6.686;2023-03-24T03:33:41;1.10;;;0.93;;
13067;SDS011;6600;51.362;6.686;2023-03-24T03:36:17;1.80;;;0.90;;
13067;SDS011;6600;51.362;6.686;2023-03-24T03:41:39;0.70;;;0.70;;
13067;SDS011;6600;51.362;6.686;2023-03-24T03:44:06;0.80;;;0.80;;
13067;SDS011;6600;51.362;6.686;2023-03-24T03:46:32;1.50;;;0.67;;
13067;SDS011;6600;51.362;6.686;2023-03-24T03:48:59;0.83;;;0.73;;
13067;SDS011;6600;51.362;6.686;2023-03-24T03:51:25;1.80;;;0.93;;
13067;SDS011;6600;51.362;6.686;2023-03-24T03:53:51;0.90;;;0.90;;
13067;SDS011;6600;51.362;6.686;2023-03-24T03:56:21;1.10;;;0.93;;
13067;SDS011;6600;51.362;6.686;2023-03-24T03:58:48;1.30;;;1.00;;
13067;SDS011;6600;51.362;6.686;2023-03-24T04:01:18;0.80;;;0.80;;
13067;SDS011;6600;51.362;6.686;2023-03-24T04:28:53;0.90;;;0.90;;
13067;SDS011;6600;51.362;6.686;2023-03-24T04:31:31;0.70;;;0.70;;
13067;SDS011;6600;51.362;6.686;2023-03-24T04:34:09;0.90;;;0.90;;
13067;SDS011;6600;51.362;6.686;2023-03-24T04:36:41;0.80;;;0.80;;
13067;SDS011;6600;51.362;6.686;2023-03-24T04:39:15;2.33;;;0.77;;
13067;SDS011;6600;51.362;6.686;2023-03-24T04:41:49;0.97;;;0.70;;
13067;SDS011;6600;51.362;6.686;2023-03-24T04:44:16;1.20;;;1.10;;
13067;SDS011;6600;51.362;6.686;2023-03-24T04:46:45;1.47;;;0.80;;
13067;SDS011;6600;51.362;6.686;2023-03-24T04:49:13;0.70;;;0.70;;
13067;SDS011;6600;51.362;6.686;2023-03-24T04:51:39;1.70;;;1.60;;
13067;SDS011;6600;51.362;6.686;2023-03-24T04:54:05;0.63;;;0.63;;
13067;SDS011;6600;51.362;6.686;2023-03-24T04:56:35;1.67;;;1.17;;
13067;SDS011;6600;51.362;6.686;2023-03-24T04:59:04;0.70;;;0.50;;
13067;SDS011;6600;51.362;6.686;2023-03-24T05:01:31;2.50;;;0.80;;
13067;SDS011;6600;51.362;6.686;2023-03-24T05:04:01;0.83;;;0.80;;
13067;SDS011;6600;51.362;6.686;2023-03-24T05:06:28;1.60;;;0.87;;
13067;SDS011;6600;51.362;6.686;2023-03-24T05:08:53;0.70;;;0.70;;
13067;SDS011;6600;51.362;6.686;2023-03-24T05:11:21;0.60;;;0.60;;
13067;SDS011;6600;51.362;6.686;2023-03-24T05:13:46;0.60;;;0.57;;
13067;SDS011;6600;51.362;6.686;2023-03-24T05:16:12;0.57;;;0.40;;
13067;SDS011;6600;51.362;6.686;2023-03-24T05:18:38;0.47;;;0.47;;
13067;SDS011;6600;51.362;6.686;2023-03-24T05:21:03;0.87;;;0.60;;
13067;SDS011;6600;51.362;6.686;2023-03-24T05:23:29;0.40;;;0.40;;
13067;SDS011;6600;51.362;6.686;2023-03-24T05:25:54;0.47;;;0.43;;
13067;SDS011;6600;51.362;6.686;2023-03-24T05:28:20;1.73;;;0.70;;
13067;SDS011;6600;51.362;6.686;2023-03-24T05:30:45;0.20;;;0.20;;
13067;SDS011;6600;51.362;6.686;2023-03-24T05:33:11;0.30;;;0.30;;
13067;SDS011;6600;51.362;6.686;2023-03-24T05:35:36;0.70;;;0.70;;
13067;SDS011;6600;51.362;6.686;2023-03-24T05:38:01;0.57;;;0.57;;
13067;SDS011;6600;51.362;6.686;2023-03-24T05:40:27;0.87;;;0.70;;
13067;SDS011;6600;51.362;6.686;2023-03-24T05:42:52;0.30;;;0.30;;
13067;SDS011;6600;51.362;6.686;2023-03-24T05:45:17;0.87;;;0.60;;
13067;SDS011;6600;51.362;6.686;2023-03-24T05:47:43;0.57;;;0.57;;
13067;SDS011;6600;51.362;6.686;2023-03-24T05:50:10;0.57;;;0.53;;
13067;SDS011;6600;51.362;6.686;2023-03-24T05:52:36;0.47;;;0.47;;
13067;SDS011;6600;51.362;6.686;2023-03-24T05:55:01;0.40;;;0.40;;
13067;SDS011;6600;51.362;6.686;2023-03-24T05:57:26;1.57;;;0.60;;
13067;SDS011;6600;51.362;6.686;2023-03-24T05:59:54;0.87;;;0.57;;
13067;SDS011;6600;51.362;6.686;2023-03-24T06:02:21;0.70;;;0.70;;
13067;SDS011;6600;51.362;6.686;2023-03-24T06:04:46;0.40;;;0.40;;
13067;SDS011;6600;51.362;6.686;2023-03-24T06:07:12;0.30;;;0.30;;
13067;SDS011;6600;51.362;6.686;2023-03-24T06:09:39;0.83;;;0.53;;
13067;SDS011;6600;51.362;6.686;2023-03-24T06:12:06;1.67;;;0.30;;
13067;SDS011;6600;51.362;6.686;2023-03-24T06:14:33;0.57;;;0.40;;
13067;SDS011;6600;51.362;6.686;2023-03-24T06:16:58;0.27;;;0.20;;
13067;SDS011;6600;51.362;6.686;2023-03-24T06:19:26;1.90;;;0.40;;
13067;SDS011;6600;51.362;6.686;2023-03-24T06:21:54;1.37;;;0.20;;
13067;SDS011;6600;51.362;6.686;2023-03-24T06:24:20;0.30;;;0.30;;
13067;SDS011;6600;51.362;6.686;2023-03-24T06:26:45;0.20;;;0.20;;
13067;SDS011;6600;51.362;6.686;2023-03-24T06:29:14;2.37;;;0.57;;
13067;SDS011;6600;51.362;6.686;2023-03-24T06:31:42;0.87;;;0.53;;
13067;SDS011;6600;51.362;6.686;2023-03-24T06:34:07;1.90;;;0.53;;
13067;SDS011;6600;51.362;6.686;2023-03-24T06:36:33;0.37;;;0.23;;
13067;SDS011;6600;51.362;6.686;2023-03-24T06:38:59;3.20;;;0.70;;
13067;SDS011;6600;51.362;6.686;2023-03-24T06:41:30;0.87;;;0.50;;
13067;SDS011;6600;51.362;6.686;2023-03-24T06:43:56;2.40;;;0.40;;
13067;SDS011;6600;51.362;6.686;2023-03-24T06:46:21;0.30;;;0.30;;
13067;SDS011;6600;51.362;6.686;2023-03-24T06:48:47;2.37;;;0.53;;
13067;SDS011;6600;51.362;6.686;2023-03-24T06:51:13;0.77;;;0.33;;
13067;SDS011;6600;51.362;6.686;2023-03-24T06:53:38;1.10;;;0.43;;
13067;SDS011;6600;51.362;6.686;2023-03-24T06:56:05;3.03;;;0.87;;
13067;SDS011;6600;51.362;6.686;2023-03-24T06:58:31;0.53;;;0.53;;
13067;SDS011;6600;51.362;6.686;2023-03-24T07:00:58;2.17;;;0.70;;
13067;SDS011;6600;51.362;6.686;2023-03-24T07:03:25;0.73;;;0.40;;
13067;SDS011;6600;51.362;6.686;2023-03-24T07:05:50;2.27;;;0.37;;
13067;SDS011;6600;51.362;6.686;2023-03-24T07:08:16;0.53;;;0.53;;
13067;SDS011;6600;51.362;6.686;2023-03-24T07:10:41;0.87;;;0.47;;
13067;SDS011;6600;51.362;6.686;2023-03-24T07:13:07;2.67;;;0.70;;
13067;SDS011;6600;51.362;6.686;2023-03-24T07:15:32;0.70;;;0.60;;
13067;SDS011;6600;51.362;6.686;2023-03-24T07:17:58;1.43;;;0.70;;
13067;SDS011;6600;51.362;6.686;2023-03-24T07:20:24;0.53;;;0.40;;
13067;SDS011;6600;51.362;6.686;2023-03-24T07:22:49;2.00;;;0.63;;
13067;SDS011;6600;51.362;6.686;2023-03-24T07:25:15;0.40;;;0.40;;
13067;SDS011;6600;51.362;6.686;2023-03-24T07:27:44;1.40;;;0.67;;
13067;SDS011;6600;51.362;6.686;2023-03-24T07:30:10;0.60;;;0.53;;
13067;SDS011;6600;51.362;6.686;2023-03-24T07:32:36;0.40;;;0.40;;
13067;SDS011;6600;51.362;6.686;2023-03-24T07:35:04;2.20;;;0.83;;
13067;SDS011;6600;51.362;6.686;2023-03-24T07:37:34;1.20;;;0.60;;
13067;SDS011;6600;51.362;6.686;2023-03-24T07:40:02;0.77;;;0.47;;
13067;SDS011;6600;51.362;6.686;2023-03-24T07:42:33;0.93;;;0.40;;
13067;SDS011;6600;51.362;6.686;2023-03-24T07:44:58;1.70;;;0.47;;
13067;SDS011;6600;51.362;6.686;2023-03-24T07:47:24;0.30;;;0.30;;
13067;SDS011;6600;51.362;6.686;2023-03-24T07:49:49;0.87;;;0.60;;
13067;SDS011;6600;51.362;6.686;2023-03-24T07:52:15;1.70;;;1.60;;
13067;SDS011;6600;51.362;6.686;2023-03-24T07:54:40;0.73;;;0.30;;
13067;SDS011;6600;51.362;6.686;2023-03-24T07:57:05;0.40;;;0.40;;
13067;SDS011;6600;51.362;6.686;2023-03-24T07:59:31;1.03;;;0.43;;
13067;SDS011;6600;51.362;6.686;2023-03-24T08:01:58;0.87;;;0.27;;
13067;SDS011;6600;51.362;6.686;2023-03-24T08:04:23;2.67;;;0.43;;
13067;SDS011;6600;51.362;6.686;2023-03-24T08:06:48;0.23;;;0.23;;
13067;SDS011;6600;51.362;6.686;2023-03-24T08:09:14;3.97;;;0.40;;
13067;SDS011;6600;51.362;6.686;2023-03-24T08:11:40;0.47;;;0.40;;
13067;SDS011;6600;51.362;6.686;2023-03-24T08:14:05;1.03;;;0.50;;
13067;SDS011;6600;51.362;6.686;2023-03-24T08:16:31;1.27;;;0.33;;
13067;SDS011;6600;51.362;6.686;2023-03-24T08:18:57;2.33;;;0.70;;
13067;SDS011;6600;51.362;6.686;2023-03-24T08:21:23;1.23;;;0.70;;
13067;SDS011;6600;51.362;6.686;2023-03-24T08:23:50;1.13;;;0.60;;
13067;SDS011;6600;51.362;6.686;2023-03-24T08:26:15;1.90;;;0.70;;
13067;SDS011;6600;51.362;6.686;2023-03-24T08:28:41;0.87;;;0.50;;
13067;SDS011;6600;51.362;6.686;2023-03-24T08:31:06;1.70;;;0.30;;
13067;SDS011;6600;51.362;6.686;2023-03-24T08:33:32;3.60;;;0.80;;
13067;SDS011;6600;51.362;6.686;2023-03-24T08:35:58;2.10;;;1.17;;
13067;SDS011;6600;51.362;6.686;2023-03-24T08:38:24;0.50;;;0.50;;
13067;SDS011;6600;51.362;6.686;2023-03-24T08:41:00;0.40;;;0.40;;
13067;SDS011;6600;51.362;6.686;2023-03-24T08:43:31;2.93;;;0.70;;
13067;SDS011;6600;51.362;6.686;2023-03-24T08:45:58;2.27;;;0.90;;
13067;SDS011;6600;51.362;6.686;2023-03-24T08:48:24;0.40;;;0.33;;
13067;SDS011;6600;51.362;6.686;2023-03-24T08:50:51;0.80;;;0.80;;
13067;SDS011;6600;51.362;6.686;2023-03-24T08:53:16;2.23;;;0.97;;
13067;SDS011;6600;51.362;6.686;2023-03-24T08:55:41;1.67;;;0.50;;
13067;SDS011;6600;51.362;6.686;2023-03-24T08:58:12;0.60;;;0.50;;
13067;SDS011;6600;51.362;6.686;2023-03-24T09:00:41;1.20;;;0.90;;
13067;SDS011;6600;51.362;6.686;2023-03-24T09:03:09;2.07;;;0.57;;
13067;SDS011;6600;51.362;6.686;2023-03-24T09:05:37;1.17;;;0.40;;
13067;SDS011;6600;51.362;6.686;2023-03-24T09:08:03;1.13;;;0.60;;
13067;SDS011;6600;51.362;6.686;2023-03-24T09:10:28;2.17;;;0.73;;
13067;SDS011;6600;51.362;6.686;2023-03-24T09:12:54;0.63;;;0.63;;
13067;SDS011;6600;51.362;6.686;2023-03-24T09:15:19;4.00;;;0.60;;
13067;SDS011;6600;51.362;6.686;2023-03-24T09:17:44;0.47;;;0.47;;
13067;SDS011;6600;51.362;6.686;2023-03-24T09:20:11;0.73;;;0.40;;
13067;SDS011;6600;51.362;6.686;2023-03-24T09:22:39;0.87;;;0.57;;
13067;SDS011;6600;51.362;6.686;2023-03-24T09:25:06;0.90;;;0.50;;
13067;SDS011;6600;51.362;6.686;2023-03-24T09:27:32;4.73;;;0.57;;
13067;SDS011;6600;51.362;6.686;2023-03-24T09:29:58;0.97;;;0.40;;
13067;SDS011;6600;51.362;6.686;2023-03-24T09:32:23;3.23;;;0.70;;
13067;SDS011;6600;51.362;6.686;2023-03-24T09:34:48;1.67;;;0.57;;
13067;SDS011;6600;51.362;6.686;2023-03-24T09:37:14;1.33;;;0.70;;
13067;SDS011;6600;51.362;6.686;2023-03-24T09:39:39;0.93;;;0.40;;
13067;SDS011;6600;51.362;6.686;2023-03-24T09:42:05;3.27;;;0.77;;
13067;SDS011;6600;51.362;6.686;2023-03-24T09:44:34;1.80;;;0.40;;
13067;SDS011;6600;51.362;6.686;2023-03-24T09:47:05;2.13;;;0.47;;
13067;SDS011;6600;51.362;6.686;2023-03-24T09:49:41;1.57;;;0.63;;
13067;SDS011;6600;51.362;6.686;2023-03-24T09:52:11;2.17;;;0.53;;
13067;SDS011;6600;51.362;6.686;2023-03-24T09:57:43;0.60;;;0.37;;
13067;SDS011;6600;51.362;6.686;2023-03-24T10:00:25;0.30;;;0.27;;
13067;SDS011;6600;51.362;6.686;2023-03-24T10:03:19;0.77;;;0.43;;
13067;SDS011;6600;51.362;6.686;2023-03-24T10:06:00;2.43;;;0.50;;
13067;SDS011;6600;51.362;6.686;2023-03-24T10:08:35;0.50;;;0.50;;
13067;SDS011;6600;51.362;6.686;2023-03-24T10:11:09;2.03;;;0.47;;
13067;SDS011;6600;51.362;6.686;2023-03-24T10:24:58;1.03;;;0.53;;
13067;SDS011;6600;51.362;6.686;2023-03-24T10:30:21;0.30;;;0.30;;
13067;SDS011;6600;51.362;6.686;2023-03-24T10:32:50;2.63;;;0.63;;
13067;SDS011;6600;51.362;6.686;2023-03-24T10:35:24;1.10;;;1.00;;
13067;SDS011;6600;51.362;6.686;2023-03-24T10:37:53;0.87;;;0.77;;
13067;SDS011;6600;51.362;6.686;2023-03-24T10:40:27;0.23;;;0.23;;
13067;SDS011;6600;51.362;6.686;2023-03-24T10:42:55;1.40;;;0.43;;
13067;SDS011;6600;51.362;6.686;2023-03-24T10:45:32;2.00;;;0.40;;
13067;SDS011;6600;51.362;6.686;2023-03-24T10:47:59;0.63;;;0.57;;
13067;SDS011;6600;51.362;6.686;2023-03-24T10:50:29;1.20;;;0.30;;
13067;SDS011;6600;51.362;6.686;2023-03-24T10:52:57;1.03;;;0.67;;
13067;SDS011;6600;51.362;6.686;2023-03-24T10:55:26;0.40;;;0.40;;
13067;SDS011;6600;51.362;6.686;2023-03-24T10:57:56;0.47;;;0.47;;
13067;SDS011;6600;51.362;6.686;2023-03-24T11:00:24;2.67;;;0.77;;
13067;SDS011;6600;51.362;6.686;2023-03-24T11:03:03;1.23;;;0.50;;
13067;SDS011;6600;51.362;6.686;2023-03-24T11:05:32;4.20;;;0.63;;
13067;SDS011;6600;51.362;6.686;2023-03-24T11:10:50;1.30;;;0.53;;
13067;SDS011;6600;51.362;6.686;2023-03-24T11:13:19;0.60;;;0.60;;
13067;SDS011;6600;51.362;6.686;2023-03-24T11:21:43;2.10;;;0.63;;
13067;SDS011;6600;51.362;6.686;2023-03-24T11:24:10;0.40;;;0.30;;
13067;SDS011;6600;51.362;6.686;2023-03-24T11:26:38;0.47;;;0.47;;
13067;SDS011;6600;51.362;6.686;2023-03-24T11:29:05;4.00;;;0.60;;
13067;SDS011;6600;51.362;6.686;2023-03-24T11:31:37;0.70;;;0.70;;
13067;SDS011;6600;51.362;6.686;2023-03-24T11:34:08;0.97;;;0.80;;
13067;SDS011;6600;51.362;6.686;2023-03-24T11:36:41;3.10;;;0.70;;
13067;SDS011;6600;51.362;6.686;2023-03-24T11:39:15;1.60;;;0.93;;
13067;SDS011;6600;51.362;6.686;2023-03-24T11:41:42;1.87;;;1.10;;
13067;SDS011;6600;51.362;6.686;2023-03-24T11:46:47;0.30;;;0.30;;
13067;SDS011;6600;51.362;6.686;2023-03-24T11:49:18;0.87;;;0.60;;
13067;SDS011;6600;51.362;6.686;2023-03-24T11:51:46;0.40;;;0.40;;
13067;SDS011;6600;51.362;6.686;2023-03-24T11:54:16;4.50;;;0.90;;
13067;SDS011;6600;51.362;6.686;2023-03-24T11:56:45;1.43;;;0.50;;
13067;SDS011;6600;51.362;6.686;2023-03-24T11:59:30;0.53;;;0.47;;
13067;SDS011;6600;51.362;6.686;2023-03-24T12:01:59;1.37;;;0.40;;
13067;SDS011;6600;51.362;6.686;2023-03-24T12:20:51;3.80;;;0.90;;
13067;SDS011;6600;51.362;6.686;2023-03-24T12:26:31;0.50;;;0.50;;
13067;SDS011;6600;51.362;6.686;2023-03-24T12:37:35;0.50;;;0.43;;
13067;SDS011;6600;51.362;6.686;2023-03-24T12:42:39;2.00;;;0.87;;
13067;SDS011;6600;51.362;6.686;2023-03-24T12:50:56;0.60;;;0.50;;
13067;SDS011;6600;51.362;6.686;2023-03-24T12:57:01;2.30;;;0.60;;
13067;SDS011;6600;51.362;6.686;2023-03-24T12:59:38;1.10;;;0.80;;
13067;SDS011;6600;51.362;6.686;2023-03-24T13:05:02;1.40;;;0.83;;
13067;SDS011;6600;51.362;6.686;2023-03-24T13:07:31;2.07;;;1.07;;
13067;SDS011;6600;51.362;6.686;2023-03-24T13:10:20;1.20;;;0.60;;
13067;SDS011;6600;51.362;6.686;2023-03-24T13:13:04;3.17;;;0.83;;
13067;SDS011;6600;51.362;6.686;2023-03-24T13:15:38;0.87;;;0.50;;
13067;SDS011;6600;51.362;6.686;2023-03-24T13:28:28;1.13;;;0.40;;
13067;SDS011;6600;51.362;6.686;2023-03-24T13:30:59;1.17;;;0.40;;
13067;SDS011;6600;51.362;6.686;2023-03-24T13:33:28;0.93;;;0.50;;
13067;SDS011;6600;51.362;6.686;2023-03-24T13:36:40;1.53;;;0.40;;
13067;SDS011;6600;51.362;6.686;2023-03-24T13:39:15;1.20;;;0.40;;
13067;SDS011;6600;51.362;6.686;2023-03-24T13:41:52;2.50;;;0.30;;
13067;SDS011;6600;51.362;6.686;2023-03-24T13:44:24;0.40;;;0.33;;
13067;SDS011;6600;51.362;6.686;2023-03-24T13:46:58;1.83;;;0.60;;
13067;SDS011;6600;51.362;6.686;2023-03-24T13:49:29;0.50;;;0.30;;
13067;SDS011;6600;51.362;6.686;2023-03-24T13:51:55;1.83;;;0.33;;
13067;SDS011;6600;51.362;6.686;2023-03-24T13:54:22;1.03;;;0.40;;
13067;SDS011;6600;51.362;6.686;2023-03-24T13:56:53;1.93;;;0.67;;
13067;SDS011;6600;51.362;6.686;2023-03-24T13:59:27;0.43;;;0.43;;
13067;SDS011;6600;51.362;6.686;2023-03-24T14:02:17;0.53;;;0.30;;
13067;SDS011;6600;51.362;6.686;2023-03-24T14:07:30;0.77;;;0.77;;
13067;SDS011;6600;51.362;6.686;2023-03-24T14:15:33;0.33;;;0.30;;
13067;SDS011;6600;51.362;6.686;2023-03-24T14:18:14;0.87;;;0.33;;
13067;SDS011;6600;51.362;6.686;2023-03-24T14:23:28;2.07;;;0.50;;
13067;SDS011;6600;51.362;6.686;2023-03-24T14:26:01;0.67;;;0.50;;
13067;SDS011;6600;51.362;6.686;2023-03-24T14:28:30;1.17;;;0.63;;
13067;SDS011;6600;51.362;6.686;2023-03-24T14:31:02;0.20;;;0.20;;
13067;SDS011;6600;51.362;6.686;2023-03-24T14:33:33;0.63;;;0.47;;
13067;SDS011;6600;51.362;6.686;2023-03-24T14:36:02;2.00;;;0.40;;
13067;SDS011;6600;51.362;6.686;2023-03-24T14:38:33;0.30;;;0.30;;
13067;SDS011;6600;51.362;6.686;2023-03-24T14:41:04;0.30;;;0.30;;
13067;SDS011;6600;51.362;6.686;2023-03-24T14:46:31;0.40;;;0.40;;
13067;SDS011;6600;51.362;6.686;2023-03-24T14:49:12;0.23;;;0.23;;
13067;SDS011;6600;51.362;6.686;2023-03-24T14:54:55;0.43;;;0.40;;
13067;SDS011;6600;51.362;6.686;2023-03-24T14:57:24;0.40;;;0.40;;
13067;SDS011;6600;51.362;6.686;2023-03-24T15:00:15;0.20;;;0.20;;
13067;SDS011;6600;51.362;6.686;2023-03-24T15:10:55;1.67;;;0.37;;
13067;SDS011;6600;51.362;6.686;2023-03-24T15:13:38;0.50;;;0.50;;
13067;SDS011;6600;51.362;6.686;2023-03-24T15:16:15;0.87;;;0.57;;
13067;SDS011;6600;51.362;6.686;2023-03-24T15:18:56;0.90;;;0.40;;
13067;SDS011;6600;51.362;6.686;2023-03-24T15:23:48;0.30;;;0.30;;
13067;SDS011;6600;51.362;6.686;2023-03-24T15:26:14;0.33;;;0.33;;
13067;SDS011;6600;51.362;6.686;2023-03-24T15:28:40;0.70;;;0.57;;
13067;SDS011;6600;51.362;6.686;2023-03-24T15:31:06;1.30;;;0.40;;
13067;SDS011;6600;51.362;6.686;2023-03-24T15:33:39;1.00;;;0.53;;
13067;SDS011;6600;51.362;6.686;2023-03-24T15:36:14;2.47;;;0.63;;
13067;SDS011;6600;51.362;6.686;2023-03-24T15:38:47;0.93;;;0.40;;
13067;SDS011;6600;51.362;6.686;2023-03-24T15:41:16;1.03;;;0.40;;
13067;SDS011;6600;51.362;6.686;2023-03-24T15:43:46;0.30;;;0.30;;
13067;SDS011;6600;51.362;6.686;2023-03-24T15:46:27;0.57;;;0.50;;
13067;SDS011;6600;51.362;6.686;2023-03-24T15:48:55;0.30;;;0.30;;
13067;SDS011;6600;51.362;6.686;2023-03-24T15:54:24;1.63;;;0.60;;
13067;SDS011;6600;51.362;6.686;2023-03-24T15:59:33;0.40;;;0.40;;
13067;SDS011;6600;51.362;6.686;2023-03-24T16:02:02;0.40;;;0.40;;
13067;SDS011;6600;51.362;6.686;2023-03-24T16:04:33;0.40;;;0.37;;
13067;SDS011;6600;51.362;6.686;2023-03-24T16:06:59;0.10;;;0.10;;
13067;SDS011;6600;51.362;6.686;2023-03-24T16:09:32;0.30;;;0.20;;
13067;SDS011;6600;51.362;6.686;2023-03-24T16:12:01;0.87;;;0.40;;
13067;SDS011;6600;51.362;6.686;2023-03-24T16:14:28;0.27;;;0.27;;
13067;SDS011;6600;51.362;6.686;2023-03-24T16:16:57;0.60;;;0.20;;
13067;SDS011;6600;51.362;6.686;2023-03-24T16:19:24;0.30;;;0.10;;
13067;SDS011;6600;51.362;6.686;2023-03-24T16:21:50;0.37;;;0.30;;
13067;SDS011;6600;51.362;6.686;2023-03-24T16:24:15;0.10;;;0.10;;
13067;SDS011;6600;51.362;6.686;2023-03-24T16:26:41;0.20;;;0.20;;
13067;SDS011;6600;51.362;6.686;2023-03-24T16:31:41;0.30;;;0.30;;
13067;SDS011;6600;51.362;6.686;2023-03-24T16:34:08;1.70;;;0.50;;
13067;SDS011;6600;51.362;6.686;2023-03-24T16:36:34;0.87;;;0.57;;
13067;SDS011;6600;51.362;6.686;2023-03-24T16:38:59;0.10;;;0.10;;
13067;SDS011;6600;51.362;6.686;2023-03-24T16:41:26;0.43;;;0.43;;
13067;SDS011;6600;51.362;6.686;2023-03-24T16:43:52;0.83;;;0.30;;
13067;SDS011;6600;51.362;6.686;2023-03-24T16:48:52;0.27;;;0.27;;
13067;SDS011;6600;51.362;6.686;2023-03-24T16:51:18;0.63;;;0.37;;
13067;SDS011;6600;51.362;6.686;2023-03-24T16:53:44;0.43;;;0.20;;
13067;SDS011;6600;51.362;6.686;2023-03-24T16:56:14;1.20;;;0.23;;
13067;SDS011;6600;51.362;6.686;2023-03-24T16:58:41;0.57;;;0.40;;
13067;SDS011;6600;51.362;6.686;2023-03-24T17:04:05;0.30;;;0.30;;
13067;SDS011;6600;51.362;6.686;2023-03-24T17:06:46;0.37;;;0.33;;
13067;SDS011;6600;51.362;6.686;2023-03-24T17:09:14;0.00;;;0.00;;
13067;SDS011;6600;51.362;6.686;2023-03-24T17:11:41;2.93;;;0.20;;
13067;SDS011;6600;51.362;6.686;2023-03-24T17:14:12;0.07;;;0.07;;
13067;SDS011;6600;51.362;6.686;2023-03-24T17:16:38;0.20;;;0.13;;
13067;SDS011;6600;51.362;6.686;2023-03-24T17:19:08;0.40;;;0.40;;
13067;SDS011;6600;51.362;6.686;2023-03-24T17:24:31;1.37;;;0.60;;
13067;SDS011;6600;51.362;6.686;2023-03-24T17:27:02;0.83;;;0.30;;
13067;SDS011;6600;51.362;6.686;2023-03-24T17:29:33;0.23;;;0.20;;
13067;SDS011;6600;51.362;6.686;2023-03-24T17:32:00;0.23;;;0.23;;
13067;SDS011;6600;51.362;6.686;2023-03-24T17:34:25;0.60;;;0.60;;
13067;SDS011;6600;51.362;6.686;2023-03-24T17:36:51;0.20;;;0.20;;
13067;SDS011;6600;51.362;6.686;2023-03-24T17:39:16;0.20;;;0.20;;
13067;SDS011;6600;51.362;6.686;2023-03-24T17:41:43;0.50;;;0.50;;
13067;SDS011;6600;51.362;6.686;2023-03-24T17:44:08;0.40;;;0.40;;
13067;SDS011;6600;51.362;6.686;2023-03-24T17:46:34;2.43;;;0.50;;
13067;SDS011;6600;51.362;6.686;2023-03-24T17:49:00;0.50;;;0.50;;
13067;SDS011;6600;51.362;6.686;2023-03-24T17:51:25;0.37;;;0.37;;
13067;SDS011;6600;51.362;6.686;2023-03-24T17:53:52;0.33;;;0.30;;
13067;SDS011;6600;51.362;6.686;2023-03-24T17:56:17;0.37;;;0.37;;
13067;SDS011;6600;51.362;6.686;2023-03-24T17:58:44;0.30;;;0.30;;
13067;SDS011;6600;51.362;6.686;2023-03-24T18:01:11;0.20;;;0.20;;
13067;SDS011;6600;51.362;6.686;2023-03-24T18:03:38;0.47;;;0.10;;
13067;SDS011;6600;51.362;6.686;2023-03-24T18:06:10;1.40;;;0.20;;
13067;SDS011;6600;51.362;6.686;2023-03-24T18:08:37;0.63;;;0.30;;
13067;SDS011;6600;51.362;6.686;2023-03-24T18:11:07;0.60;;;0.40;;
13067;SDS011;6600;51.362;6.686;2023-03-24T18:13:34;1.90;;;0.60;;
13067;SDS011;6600;51.362;6.686;2023-03-24T18:16:00;1.43;;;0.80;;
13067;SDS011;6600;51.362;6.686;2023-03-24T18:18:27;1.10;;;0.67;;